Terminal Aerodrome Forecast
Issued by NWS Mobile, AL

Home | Current Version | Previous Version | Text Only | Print | Product List | Glossary On
Versions: 1 2 3 4 5 6 7 8 9 10 11 12 13 14
000
FTUS44 KMOB 261757
TAFMOB
TAF
KMOB 261757Z 2618/2718 13008KT P6SM BKN045 BKN060 BKN250
     FM270100 11003KT P6SM FEW050 SCT250
     FM271500 07008KT P6SM SKC=

USA.gov is the U.S. government's official web portal to all federal, state and local government web resources and services.